createdAt,value
2023-02-19T00:02:13.663Z,13.67
2023-02-19T00:04:42.689Z,13.97
2023-02-19T00:07:12.891Z,14.10
2023-02-19T00:09:41.771Z,12.67
2023-02-19T00:12:10.650Z,11.83
2023-02-19T00:14:39.464Z,11.80
2023-02-19T00:17:08.288Z,12.77
2023-02-19T00:19:37.190Z,11.57
2023-02-19T00:22:05.995Z,11.30
2023-02-19T00:24:36.258Z,10.77
2023-02-19T00:27:05.258Z,11.57
2023-02-19T00:29:34.239Z,12.50
2023-02-19T00:32:03.232Z,12.87
2023-02-19T00:34:32.145Z,12.60
2023-02-19T00:37:01.100Z,13.50
2023-02-19T00:39:29.919Z,12.87
2023-02-19T00:42:01.008Z,14.47
2023-02-19T00:44:29.903Z,14.13
2023-02-19T00:46:58.698Z,13.33
2023-02-19T00:49:27.492Z,13.30
2023-02-19T00:51:56.480Z,11.77
2023-02-19T00:54:25.348Z,13.00
2023-02-19T00:56:54.306Z,12.63
2023-02-19T00:59:24.645Z,48.80
2023-02-19T01:01:53.578Z,51.30
2023-02-19T01:04:22.456Z,46.10
2023-02-19T01:06:51.365Z,39.20
2023-02-19T01:09:20.334Z,33.90
2023-02-19T01:11:49.130Z,35.17
2023-02-19T01:14:17.969Z,33.77
2023-02-19T01:16:48.297Z,35.60
2023-02-19T01:19:17.335Z,33.90
2023-02-19T01:21:46.122Z,33.63
2023-02-19T01:24:16.041Z,31.07
2023-02-19T01:26:45.454Z,28.67
2023-02-19T01:29:14.237Z,25.73
2023-02-19T01:31:43.507Z,24.90
2023-02-19T01:34:14.172Z,24.50
2023-02-19T01:36:43.019Z,23.97
2023-02-19T01:39:12.483Z,25.50
2023-02-19T01:41:43.285Z,25.83
2023-02-19T01:44:45.107Z,26.17
2023-02-19T01:47:15.102Z,27.50
2023-02-19T01:49:49.901Z,28.27
2023-02-19T01:52:23.805Z,27.53
2023-02-19T01:54:53.187Z,28.33
2023-02-19T01:57:25.575Z,26.60
2023-02-19T01:59:59.007Z,27.10
2023-02-19T02:02:28.694Z,18.10
2023-02-19T02:05:01.176Z,18.20
2023-02-19T02:07:47.230Z,14.73
2023-02-19T02:10:21.876Z,16.53
2023-02-19T02:12:52.742Z,15.70
2023-02-19T02:15:22.487Z,15.90
2023-02-19T02:17:57.415Z,22.63
2023-02-19T02:20:37.398Z,21.27
2023-02-19T02:23:16.252Z,19.37
2023-02-19T02:26:12.649Z,14.30
2023-02-19T02:29:18.005Z,13.00
2023-02-19T02:31:52.980Z,34.73
2023-02-19T02:34:28.058Z,34.57
2023-02-19T02:36:58.241Z,26.87
2023-02-19T02:39:29.547Z,32.80
2023-02-19T02:42:18.743Z,36.37
2023-02-19T02:45:20.915Z,34.47
2023-02-19T02:47:53.864Z,25.93
2023-02-19T02:50:44.508Z,24.00
2023-02-19T02:53:35.268Z,22.03
2023-02-19T02:56:05.445Z,21.37
2023-02-19T02:58:36.452Z,18.10
2023-02-19T03:01:28.272Z,16.83
2023-02-19T03:04:02.466Z,17.10
2023-02-19T03:06:35.039Z,18.87
2023-02-19T03:09:10.760Z,20.77
2023-02-19T03:12:00.041Z,19.53
2023-02-19T03:14:52.531Z,20.93
2023-02-19T03:17:43.529Z,21.13
2023-02-19T03:20:17.361Z,22.50
2023-02-19T03:22:47.418Z,23.07
2023-02-19T03:25:37.548Z,34.43
2023-02-19T03:28:11.292Z,25.57
2023-02-19T03:30:44.632Z,26.77
2023-02-19T03:33:17.324Z,27.60
2023-02-19T03:35:52.467Z,27.60
2023-02-19T03:38:26.772Z,27.93
2023-02-19T03:41:01.284Z,27.83
2023-02-19T03:43:55.534Z,27.73
2023-02-19T03:46:29.122Z,24.27
2023-02-19T03:49:03.901Z,15.70
2023-02-19T03:51:40.689Z,12.20
2023-02-19T03:54:16.692Z,23.67
2023-02-19T03:56:51.207Z,28.97
2023-02-19T03:59:25.267Z,24.10
2023-02-19T04:01:57.775Z,12.60
2023-02-19T04:04:30.793Z,13.00
2023-02-19T04:07:01.724Z,23.17
2023-02-19T04:09:38.646Z,21.03
2023-02-19T04:12:14.095Z,15.07
2023-02-19T04:14:48.229Z,15.17
2023-02-19T04:17:41.112Z,14.00
2023-02-19T04:20:12.097Z,15.00
2023-02-19T04:22:43.498Z,14.30
2023-02-19T04:25:12.602Z,15.53
2023-02-19T04:27:42.102Z,20.23
2023-02-19T04:30:14.378Z,22.73
2023-02-19T04:32:43.390Z,26.00
2023-02-19T04:35:12.361Z,25.93
2023-02-19T04:37:42.594Z,24.20
2023-02-19T04:40:12.554Z,20.37
2023-02-19T04:42:41.499Z,19.70
2023-02-19T04:45:10.671Z,23.47
2023-02-19T04:47:39.441Z,19.00
2023-02-19T04:50:09.199Z,17.67
2023-02-19T04:52:38.059Z,17.53
2023-02-19T04:55:09.884Z,20.77
2023-02-19T04:57:57.301Z,20.97
2023-02-19T05:00:26.136Z,20.23
2023-02-19T05:03:13.492Z,27.57
2023-02-19T05:05:42.326Z,40.23
2023-02-19T05:08:12.602Z,39.93
2023-02-19T05:10:46.755Z,37.10
2023-02-19T05:13:15.753Z,33.60
2023-02-19T05:15:44.619Z,24.93
2023-02-19T05:18:13.670Z,25.40
2023-02-19T05:20:43.152Z,32.83
2023-02-19T05:23:12.680Z,43.07
2023-02-19T05:25:43.405Z,41.27
2023-02-19T05:28:30.938Z,43.67
2023-02-19T05:30:59.913Z,44.43
2023-02-19T05:33:28.956Z,44.23
2023-02-19T05:36:04.140Z,45.03
2023-02-19T05:38:34.304Z,40.80
2023-02-19T05:43:56.371Z,35.50
2023-02-19T05:46:28.318Z,31.13
2023-02-19T05:48:58.466Z,29.37
2023-02-19T05:51:46.200Z,28.67
2023-02-19T05:54:20.776Z,25.77
2023-02-19T05:57:01.470Z,26.43
2023-02-19T05:59:32.654Z,25.77
2023-02-19T06:02:01.744Z,24.07
2023-02-19T06:04:33.591Z,25.63
2023-02-19T06:07:02.514Z,25.27
2023-02-19T06:09:32.601Z,23.53
2023-02-19T06:12:03.967Z,25.20
2023-02-19T06:14:34.290Z,28.80
2023-02-19T06:17:04.571Z,28.83
2023-02-19T06:19:33.480Z,28.17
2023-02-19T06:22:02.666Z,28.13
2023-02-19T06:24:31.742Z,31.90
2023-02-19T06:27:00.739Z,31.47
2023-02-19T06:29:34.822Z,34.17
2023-02-19T06:32:04.003Z,33.37
2023-02-19T06:34:33.985Z,33.20
2023-02-19T06:37:04.897Z,30.43
2023-02-19T06:39:34.402Z,30.63
2023-02-19T06:42:03.364Z,29.13
2023-02-19T06:44:33.659Z,26.80
2023-02-19T06:47:03.444Z,27.63
2023-02-19T06:49:32.324Z,27.70
2023-02-19T06:52:02.158Z,25.37
2023-02-19T06:54:31.702Z,24.43
2023-02-19T06:57:00.677Z,24.13
2023-02-19T06:59:29.716Z,22.80
2023-02-19T07:02:15.622Z,23.97
2023-02-19T07:04:46.361Z,24.17
2023-02-19T07:07:15.402Z,25.53
2023-02-19T07:09:45.138Z,26.97
2023-02-19T07:12:14.064Z,27.50
2023-02-19T07:14:42.866Z,29.03
2023-02-19T07:17:22.592Z,31.83
2023-02-19T07:19:54.076Z,30.27
2023-02-19T07:22:23.498Z,33.60
2023-02-19T07:24:52.302Z,27.33
2023-02-19T07:27:21.413Z,29.20
2023-02-19T07:29:51.704Z,25.47
2023-02-19T07:32:22.568Z,24.10
2023-02-19T07:34:51.842Z,25.13
2023-02-19T07:37:20.844Z,24.07
2023-02-19T07:39:50.217Z,20.87
2023-02-19T07:42:19.162Z,20.57
2023-02-19T07:44:48.098Z,22.17
2023-02-19T07:47:16.939Z,23.13
2023-02-19T07:49:47.199Z,26.83
2023-02-19T07:52:16.033Z,27.57
2023-02-19T07:54:44.908Z,25.20
2023-02-19T07:57:14.682Z,24.83
2023-02-19T07:59:43.440Z,24.40
2023-02-19T08:02:35.226Z,23.63
2023-02-19T08:05:06.192Z,20.80
2023-02-19T08:07:36.052Z,21.00
2023-02-19T08:10:25.911Z,20.00
2023-02-19T08:13:19.420Z,19.23
2023-02-19T08:15:48.839Z,21.83
2023-02-19T08:18:18.685Z,19.43
2023-02-19T08:20:49.176Z,25.23
2023-02-19T08:23:20.800Z,25.77
2023-02-19T08:26:00.639Z,23.13
2023-02-19T08:28:30.924Z,25.17
2023-02-19T08:31:03.240Z,24.47
2023-02-19T08:33:33.253Z,22.10
2023-02-19T08:36:09.060Z,22.97
2023-02-19T08:38:41.043Z,21.23
2023-02-19T08:41:12.165Z,18.87
2023-02-19T08:43:41.364Z,14.17
2023-02-19T08:46:12.077Z,12.57
2023-02-19T08:48:41.336Z,10.60
2023-02-19T08:51:23.539Z,10.10
2023-02-19T08:53:52.457Z,11.57
2023-02-19T08:56:21.294Z,12.90
2023-02-19T08:58:56.043Z,13.47
2023-02-19T09:01:25.095Z,13.67
2023-02-19T09:03:55.960Z,12.53
2023-02-19T09:06:27.302Z,19.37
2023-02-19T09:08:56.259Z,28.50
2023-02-19T09:11:25.052Z,24.53
2023-02-19T09:13:54.009Z,27.27
2023-02-19T09:16:22.911Z,25.07
2023-02-19T09:18:51.926Z,21.83
2023-02-19T09:21:20.747Z,22.00
2023-02-19T09:23:51.042Z,20.83
2023-02-19T09:26:25.624Z,22.97
2023-02-19T09:28:54.651Z,21.30
2023-02-19T09:31:23.559Z,21.27
2023-02-19T09:33:53.001Z,19.90
2023-02-19T09:36:21.879Z,18.90
2023-02-19T09:38:58.214Z,13.03
2023-02-19T09:41:31.384Z,5.90
2023-02-19T09:47:05.253Z,5.20
2023-02-19T09:49:36.510Z,6.00
2023-02-19T09:52:11.021Z,5.90
2023-02-19T09:54:42.474Z,4.73
2023-02-19T09:57:16.267Z,8.50
2023-02-19T09:59:49.501Z,6.23
2023-02-19T10:02:23.986Z,6.03
2023-02-19T10:04:54.501Z,5.40
2023-02-19T10:07:25.740Z,6.13
2023-02-19T10:10:01.338Z,4.47
2023-02-19T10:12:36.884Z,4.50
2023-02-19T10:15:14.802Z,4.00
2023-02-19T10:17:43.904Z,5.30
2023-02-19T10:20:16.427Z,4.90
2023-02-19T10:22:45.348Z,4.73
2023-02-19T10:25:18.001Z,4.40
2023-02-19T10:27:47.151Z,4.47
2023-02-19T10:30:23.306Z,4.60
2023-02-19T10:33:04.634Z,3.60
2023-02-19T10:35:38.150Z,4.60
2023-02-19T10:38:08.538Z,4.70
2023-02-19T10:40:46.241Z,4.20
2023-02-19T10:43:25.870Z,5.00
2023-02-19T10:45:54.910Z,4.90
2023-02-19T10:48:26.072Z,4.87
2023-02-19T10:50:58.475Z,4.53
2023-02-19T10:53:43.339Z,4.47
2023-02-19T10:56:16.203Z,5.10
2023-02-19T10:58:47.450Z,4.57
2023-02-19T11:01:22.342Z,3.83
2023-02-19T11:03:52.587Z,4.57
2023-02-19T11:06:27.169Z,4.77
2023-02-19T11:08:58.890Z,4.53
2023-02-19T11:11:33.464Z,4.53
2023-02-19T11:14:06.511Z,4.83
2023-02-19T11:16:47.821Z,6.00
2023-02-19T11:19:29.923Z,5.20
2023-02-19T11:22:00.477Z,4.20
2023-02-19T11:24:35.348Z,4.53
2023-02-19T11:27:09.720Z,7.60
2023-02-19T11:29:39.179Z,6.03
2023-02-19T11:32:29.556Z,4.47
2023-02-19T11:35:19.937Z,4.47
2023-02-19T11:38:00.163Z,4.50
2023-02-19T11:40:40.432Z,4.73
2023-02-19T11:43:26.203Z,4.37
2023-02-19T11:46:03.848Z,4.77
2023-02-19T11:48:54.005Z,5.10
2023-02-19T11:51:42.467Z,5.13
2023-02-19T11:54:55.290Z,4.83
2023-02-19T11:57:49.383Z,5.37
2023-02-19T12:00:29.236Z,4.43
2023-02-19T12:03:38.035Z,5.00
2023-02-19T12:06:22.617Z,5.27
2023-02-19T12:09:17.609Z,4.43
2023-02-19T12:12:20.320Z,4.27
2023-02-19T12:15:15.049Z,5.10
2023-02-19T12:18:19.329Z,5.30
2023-02-19T12:21:00.404Z,4.60
2023-02-19T12:23:47.027Z,4.50
2023-02-19T12:26:27.205Z,4.60
2023-02-19T12:29:26.541Z,4.60
2023-02-19T12:32:18.606Z,4.57
2023-02-19T12:35:23.289Z,4.63
2023-02-19T12:38:06.035Z,4.60
2023-02-19T12:40:51.236Z,4.57
2023-02-19T12:43:27.648Z,6.00
2023-02-19T12:46:21.702Z,5.83
2023-02-19T12:48:56.684Z,4.53
2023-02-19T12:51:30.331Z,4.50
2023-02-19T12:54:06.221Z,5.30
2023-02-19T12:56:41.032Z,5.33
2023-02-19T12:59:16.435Z,8.03
2023-02-19T13:01:51.082Z,10.60
2023-02-19T13:04:26.505Z,7.40
2023-02-19T13:07:00.386Z,8.30
2023-02-19T13:09:34.839Z,5.27
2023-02-19T13:12:08.974Z,5.97
2023-02-19T13:14:43.189Z,5.60
2023-02-19T13:17:23.836Z,5.57
2023-02-19T13:20:00.002Z,5.83
2023-02-19T13:22:53.164Z,6.40
2023-02-19T13:25:25.642Z,5.13
2023-02-19T13:28:05.773Z,4.40
2023-02-19T13:31:03.114Z,5.00
2023-02-19T13:33:45.550Z,5.80
2023-02-19T13:36:17.139Z,5.70
2023-02-19T13:38:48.900Z,5.20
2023-02-19T13:41:28.787Z,4.20
2023-02-19T13:44:03.997Z,4.70
2023-02-19T13:46:42.748Z,4.90
2023-02-19T13:49:44.426Z,5.00
2023-02-19T13:52:37.061Z,4.93
2023-02-19T13:55:44.366Z,4.90
2023-02-19T13:59:02.712Z,4.60
2023-02-19T14:02:14.797Z,4.60
2023-02-19T14:04:57.245Z,4.63
2023-02-19T14:08:01.548Z,4.90
2023-02-19T14:11:05.137Z,4.37
2023-02-19T14:14:10.028Z,4.50
2023-02-19T14:16:56.125Z,5.10
2023-02-19T14:20:00.458Z,4.57
2023-02-19T14:23:01.733Z,5.53
2023-02-19T14:25:38.417Z,5.43
2023-02-19T14:28:18.631Z,5.03
2023-02-19T14:30:51.422Z,5.10
2023-02-19T14:33:25.910Z,5.13
2023-02-19T14:36:06.015Z,5.90
2023-02-19T14:38:40.390Z,5.40
2023-02-19T14:41:13.788Z,5.80
2023-02-19T14:43:43.700Z,4.87
2023-02-19T14:46:22.069Z,6.80
2023-02-19T14:48:52.179Z,5.03
2023-02-19T14:51:28.857Z,5.23
2023-02-19T14:54:00.336Z,5.50
2023-02-19T14:56:33.789Z,5.90
2023-02-19T14:59:22.340Z,6.53
2023-02-19T15:01:57.069Z,8.43
2023-02-19T15:04:27.607Z,9.07
2023-02-19T15:06:57.801Z,7.70
2023-02-19T15:09:33.463Z,7.83
2023-02-19T15:12:04.308Z,9.20
2023-02-19T15:14:34.776Z,9.00
2023-02-19T15:17:06.912Z,7.80
2023-02-19T15:19:39.757Z,8.30
2023-02-19T15:22:13.409Z,7.00
2023-02-19T15:24:48.599Z,7.80
2023-02-19T15:27:20.938Z,8.30
2023-02-19T15:29:53.435Z,8.17
2023-02-19T15:32:26.399Z,9.20
2023-02-19T15:34:56.739Z,8.43
2023-02-19T15:37:30.476Z,9.43
2023-02-19T15:40:08.046Z,9.10
2023-02-19T15:42:38.824Z,7.73
2023-02-19T15:45:17.681Z,8.17
2023-02-19T15:47:50.905Z,9.27
2023-02-19T15:50:24.658Z,9.70
2023-02-19T15:52:59.812Z,9.67
2023-02-19T15:55:36.536Z,11.00
2023-02-19T15:58:14.834Z,11.10
2023-02-19T16:00:48.026Z,10.57
2023-02-19T16:03:21.002Z,10.63
2023-02-19T16:06:00.837Z,11.13
2023-02-19T16:08:34.221Z,10.77
2023-02-19T16:11:07.034Z,10.43
2023-02-19T16:13:37.263Z,10.63
2023-02-19T16:16:17.599Z,11.07
2023-02-19T16:18:48.290Z,11.37
2023-02-19T16:21:19.021Z,11.93
2023-02-19T16:23:50.764Z,13.40
2023-02-19T16:26:21.140Z,13.83
2023-02-19T16:28:53.473Z,13.53
2023-02-19T16:31:24.650Z,14.73
2023-02-19T16:33:53.775Z,17.80
2023-02-19T16:36:38.230Z,17.87
2023-02-19T16:39:26.824Z,17.07
2023-02-19T16:42:21.315Z,20.40
2023-02-19T16:44:50.377Z,24.53
2023-02-19T16:47:28.907Z,19.83
2023-02-19T16:50:01.386Z,18.90
2023-02-19T16:52:30.826Z,20.00
2023-02-19T16:55:00.323Z,20.20
2023-02-19T16:57:30.909Z,19.50
2023-02-19T16:59:59.865Z,16.37
2023-02-19T17:02:28.737Z,16.00
2023-02-19T17:04:57.832Z,21.87
2023-02-19T17:07:27.670Z,23.47
2023-02-19T17:09:57.091Z,19.93
2023-02-19T17:12:25.954Z,14.80
2023-02-19T17:14:56.158Z,14.30
2023-02-19T17:17:25.002Z,14.90
2023-02-19T17:19:53.910Z,16.00
2023-02-19T17:22:22.710Z,14.73
2023-02-19T17:24:51.711Z,16.70
2023-02-19T17:27:20.587Z,15.50
2023-02-19T17:29:49.383Z,14.77
2023-02-19T17:32:19.740Z,13.97
2023-02-19T17:34:49.815Z,11.63
2023-02-19T17:37:18.718Z,11.63
2023-02-19T17:39:47.557Z,11.13
2023-02-19T17:42:16.380Z,11.40
2023-02-19T17:44:46.897Z,13.63
2023-02-19T17:47:15.768Z,13.00
2023-02-19T17:49:46.611Z,12.87
2023-02-19T17:52:17.840Z,13.83
2023-02-19T17:54:46.986Z,13.97
2023-02-19T17:57:16.323Z,18.77
2023-02-19T17:59:45.619Z,17.80
2023-02-19T18:02:15.334Z,14.10
2023-02-19T18:04:47.106Z,12.20
2023-02-19T18:07:17.033Z,11.70
2023-02-19T18:09:46.360Z,34.93
2023-02-19T18:12:15.163Z,16.27
2023-02-19T18:14:46.484Z,14.20
2023-02-19T18:17:16.235Z,13.80
2023-02-19T18:19:47.414Z,16.90
2023-02-19T18:22:18.751Z,17.97
2023-02-19T18:24:48.684Z,22.63
2023-02-19T18:27:18.755Z,17.73
2023-02-19T18:29:52.599Z,17.87
2023-02-19T18:32:22.287Z,25.10
2023-02-19T18:35:00.498Z,27.40
2023-02-19T18:37:35.329Z,27.03
2023-02-19T18:40:11.280Z,26.90
2023-02-19T18:42:42.942Z,51.40
2023-02-19T18:45:13.257Z,39.23
2023-02-19T18:48:01.404Z,48.20
2023-02-19T18:50:32.026Z,31.73
2023-02-19T18:53:01.458Z,33.80
2023-02-19T18:55:30.500Z,37.73
2023-02-19T18:57:59.998Z,31.97
2023-02-19T19:00:32.837Z,45.33
2023-02-19T19:03:07.006Z,35.43
2023-02-19T19:05:37.385Z,36.10
2023-02-19T19:08:07.070Z,34.03
2023-02-19T19:10:35.957Z,23.27
2023-02-19T19:13:07.607Z,19.27
2023-02-19T19:15:36.882Z,20.07
2023-02-19T19:18:06.677Z,15.60
2023-02-19T19:20:37.189Z,16.10
2023-02-19T19:23:06.679Z,23.70
2023-02-19T19:25:35.611Z,21.87
2023-02-19T19:28:04.548Z,31.10
2023-02-19T19:30:33.932Z,33.03
2023-02-19T19:33:03.755Z,35.97
2023-02-19T19:35:32.606Z,35.07
2023-02-19T19:38:03.271Z,33.77
2023-02-19T19:40:32.207Z,31.20
2023-02-19T19:43:01.092Z,32.60
2023-02-19T19:45:30.195Z,33.40
2023-02-19T19:47:59.192Z,30.77
2023-02-19T19:50:28.761Z,32.07
2023-02-19T19:52:57.751Z,30.07
2023-02-19T19:55:28.209Z,31.40
2023-02-19T19:58:16.965Z,34.00
2023-02-19T20:00:46.394Z,30.63
2023-02-19T20:03:15.420Z,36.03
2023-02-19T20:05:45.992Z,32.57
2023-02-19T20:08:15.558Z,31.73
2023-02-19T20:11:08.905Z,40.10
2023-02-19T20:13:37.902Z,41.80
2023-02-19T20:16:26.584Z,38.97
2023-02-19T20:18:55.613Z,41.37
2023-02-19T20:21:26.427Z,42.17
2023-02-19T20:23:55.405Z,41.93
2023-02-19T20:26:27.970Z,41.03
2023-02-19T20:28:57.354Z,43.43
2023-02-19T20:31:26.676Z,41.80
2023-02-19T20:33:55.705Z,42.83
2023-02-19T20:36:28.612Z,42.27
2023-02-19T20:39:00.247Z,42.43
2023-02-19T20:41:30.824Z,39.17
2023-02-19T20:43:59.853Z,38.87
2023-02-19T20:46:30.015Z,36.93
2023-02-19T20:48:59.116Z,33.90
2023-02-19T20:51:27.984Z,32.17
2023-02-19T20:53:56.748Z,29.83
2023-02-19T20:56:25.568Z,30.77
2023-02-19T20:58:55.784Z,27.70
2023-02-19T21:01:28.239Z,22.77
2023-02-19T21:03:57.182Z,21.63
2023-02-19T21:06:26.020Z,21.10
2023-02-19T21:08:55.469Z,21.10
2023-02-19T21:11:24.876Z,21.27
2023-02-19T21:13:56.874Z,19.57
2023-02-19T21:16:26.117Z,21.00
2023-02-19T21:18:58.339Z,23.23
2023-02-19T21:21:27.629Z,21.60
2023-02-19T21:24:00.016Z,20.73
2023-02-19T21:26:35.941Z,20.77
2023-02-19T21:29:14.156Z,21.70
2023-02-19T21:31:45.152Z,20.53
2023-02-19T21:34:16.532Z,20.73
2023-02-19T21:36:46.854Z,22.13
2023-02-19T21:39:17.386Z,21.93
2023-02-19T21:41:46.567Z,21.30
2023-02-19T21:44:17.398Z,24.83
2023-02-19T21:46:48.992Z,53.73
2023-02-19T21:49:18.438Z,32.87
2023-02-19T21:51:49.514Z,27.93
2023-02-19T21:54:21.227Z,28.50
2023-02-19T21:56:50.556Z,32.23
2023-02-19T21:59:21.656Z,29.07
2023-02-19T22:01:51.174Z,35.33
2023-02-19T22:04:22.263Z,23.40
2023-02-19T22:06:52.636Z,21.83
2023-02-19T22:09:25.061Z,21.53
2023-02-19T22:11:53.939Z,20.80
2023-02-19T22:14:24.240Z,21.17
2023-02-19T22:19:39.985Z,25.77
2023-02-19T22:22:10.798Z,27.87
2023-02-19T22:24:40.388Z,28.83
2023-02-19T22:27:12.879Z,31.93
2023-02-19T22:30:13.839Z,33.37
2023-02-19T22:32:47.503Z,36.40
2023-02-19T22:35:22.523Z,40.80
2023-02-19T22:37:59.267Z,34.83
2023-02-19T22:40:35.575Z,30.73
2023-02-19T22:43:06.199Z,30.40
2023-02-19T22:45:36.404Z,28.27
2023-02-19T22:48:30.086Z,26.83
2023-02-19T22:51:05.579Z,27.13
2023-02-19T22:53:40.813Z,35.53
2023-02-19T22:56:24.863Z,33.93
2023-02-19T22:58:54.833Z,34.50
2023-02-19T23:01:50.185Z,37.13
2023-02-19T23:16:15.508Z,25.57
2023-02-19T23:21:50.099Z,26.57
2023-02-19T23:24:19.631Z,25.17
2023-02-19T23:26:56.567Z,26.13
2023-02-19T23:29:39.535Z,25.27
2023-02-19T23:32:08.545Z,24.70
2023-02-19T23:34:47.790Z,25.60
2023-02-19T23:37:20.396Z,26.47
2023-02-19T23:39:52.321Z,26.37
2023-02-19T23:42:21.488Z,26.40
2023-02-19T23:44:51.632Z,25.07
2023-02-19T23:47:22.744Z,24.53
2023-02-19T23:49:53.769Z,25.37
2023-02-19T23:52:29.158Z,26.20
2023-02-19T23:55:01.150Z,23.67
2023-02-19T23:57:32.030Z,25.57
